sensor_id;sensor_type;location;lat;lon;timestamp;P1;durP1;ratioP1;P2;durP2;ratioP2
79243;SDS011;68672;42.676;23.356;2023-07-31T00:00:39;3.05;;;2.70;;
79243;SDS011;68672;42.676;23.356;2023-07-31T00:03:04;4.47;;;2.67;;
79243;SDS011;68672;42.676;23.356;2023-07-31T00:05:29;6.00;;;3.22;;
79243;SDS011;68672;42.676;23.356;2023-07-31T00:07:58;4.20;;;2.72;;
79243;SDS011;68672;42.676;23.356;2023-07-31T00:10:23;3.67;;;2.83;;
79243;SDS011;68672;42.676;23.356;2023-07-31T00:12:48;4.38;;;2.83;;
79243;SDS011;68672;42.676;23.356;2023-07-31T00:15:16;3.30;;;2.70;;
79243;SDS011;68672;42.676;23.356;2023-07-31T00:17:42;3.92;;;2.83;;
79243;SDS011;68672;42.676;23.356;2023-07-31T00:20:07;4.70;;;2.75;;
79243;SDS011;68672;42.676;23.356;2023-07-31T00:22:33;4.05;;;2.88;;
79243;SDS011;68672;42.676;23.356;2023-07-31T00:24:59;3.67;;;2.75;;
79243;SDS011;68672;42.676;23.356;2023-07-31T00:27:25;3.30;;;2.70;;
79243;SDS011;68672;42.676;23.356;2023-07-31T00:29:50;3.45;;;2.70;;
79243;SDS011;68672;42.676;23.356;2023-07-31T00:32:16;3.78;;;2.75;;
79243;SDS011;68672;42.676;23.356;2023-07-31T00:34:41;3.72;;;3.30;;
79243;SDS011;68672;42.676;23.356;2023-07-31T00:37:06;3.67;;;2.85;;
79243;SDS011;68672;42.676;23.356;2023-07-31T00:39:33;3.88;;;3.22;;
79243;SDS011;68672;42.676;23.356;2023-07-31T00:41:59;3.35;;;2.95;;
79243;SDS011;68672;42.676;23.356;2023-07-31T00:44:25;3.75;;;3.00;;
79243;SDS011;68672;42.676;23.356;2023-07-31T00:46:53;5.22;;;3.40;;
79243;SDS011;68672;42.676;23.356;2023-07-31T00:49:19;6.25;;;3.25;;
79243;SDS011;68672;42.676;23.356;2023-07-31T00:51:46;5.35;;;3.40;;
79243;SDS011;68672;42.676;23.356;2023-07-31T00:54:11;4.75;;;3.65;;
79243;SDS011;68672;42.676;23.356;2023-07-31T00:56:38;4.10;;;3.15;;
79243;SDS011;68672;42.676;23.356;2023-07-31T00:59:05;4.43;;;3.75;;
79243;SDS011;68672;42.676;23.356;2023-07-31T01:01:31;5.82;;;4.25;;
79243;SDS011;68672;42.676;23.356;2023-07-31T01:03:56;4.93;;;4.20;;
79243;SDS011;68672;42.676;23.356;2023-07-31T01:09:45;7.72;;;4.13;;
79243;SDS011;68672;42.676;23.356;2023-07-31T01:12:34;7.20;;;5.40;;
79243;SDS011;68672;42.676;23.356;2023-07-31T01:17:28;7.05;;;5.03;;
79243;SDS011;68672;42.676;23.356;2023-07-31T01:19:58;7.95;;;5.50;;
79243;SDS011;68672;42.676;23.356;2023-07-31T01:28:30;9.25;;;6.05;;
79243;SDS011;68672;42.676;23.356;2023-07-31T01:31:09;8.70;;;7.10;;
79243;SDS011;68672;42.676;23.356;2023-07-31T01:33:39;10.88;;;7.63;;
79243;SDS011;68672;42.676;23.356;2023-07-31T01:36:05;8.60;;;6.63;;
79243;SDS011;68672;42.676;23.356;2023-07-31T01:38:31;8.73;;;6.88;;
79243;SDS011;68672;42.676;23.356;2023-07-31T01:40:56;9.20;;;6.97;;
79243;SDS011;68672;42.676;23.356;2023-07-31T01:43:22;10.25;;;8.05;;
79243;SDS011;68672;42.676;23.356;2023-07-31T01:45:50;9.40;;;6.95;;
79243;SDS011;68672;42.676;23.356;2023-07-31T01:48:15;9.82;;;7.47;;
79243;SDS011;68672;42.676;23.356;2023-07-31T01:50:41;10.95;;;7.30;;
79243;SDS011;68672;42.676;23.356;2023-07-31T01:53:06;12.15;;;9.00;;
79243;SDS011;68672;42.676;23.356;2023-07-31T01:55:31;10.23;;;7.75;;
79243;SDS011;68672;42.676;23.356;2023-07-31T01:58:00;11.82;;;8.25;;
79243;SDS011;68672;42.676;23.356;2023-07-31T02:00:25;11.13;;;8.48;;
79243;SDS011;68672;42.676;23.356;2023-07-31T02:02:51;11.65;;;8.73;;
79243;SDS011;68672;42.676;23.356;2023-07-31T02:05:16;12.77;;;9.10;;
79243;SDS011;68672;42.676;23.356;2023-07-31T02:07:45;13.50;;;10.00;;
79243;SDS011;68672;42.676;23.356;2023-07-31T02:10:11;14.68;;;9.60;;
79243;SDS011;68672;42.676;23.356;2023-07-31T02:12:36;12.55;;;9.45;;
79243;SDS011;68672;42.676;23.356;2023-07-31T02:15:02;14.90;;;9.85;;
79243;SDS011;68672;42.676;23.356;2023-07-31T02:17:28;14.30;;;9.18;;
79243;SDS011;68672;42.676;23.356;2023-07-31T02:19:54;13.15;;;9.05;;
79243;SDS011;68672;42.676;23.356;2023-07-31T02:22:20;13.55;;;9.77;;
79243;SDS011;68672;42.676;23.356;2023-07-31T02:24:45;14.82;;;10.07;;
79243;SDS011;68672;42.676;23.356;2023-07-31T02:27:10;11.45;;;9.23;;
79243;SDS011;68672;42.676;23.356;2023-07-31T02:29:39;16.83;;;10.73;;
79243;SDS011;68672;42.676;23.356;2023-07-31T02:32:04;14.30;;;10.00;;
79243;SDS011;68672;42.676;23.356;2023-07-31T02:34:30;13.60;;;10.43;;
79243;SDS011;68672;42.676;23.356;2023-07-31T02:36:55;14.07;;;10.23;;
79243;SDS011;68672;42.676;23.356;2023-07-31T02:39:21;14.30;;;10.48;;
79243;SDS011;68672;42.676;23.356;2023-07-31T02:41:46;16.42;;;10.48;;
79243;SDS011;68672;42.676;23.356;2023-07-31T02:44:12;14.45;;;10.15;;
79243;SDS011;68672;42.676;23.356;2023-07-31T02:46:39;16.25;;;11.13;;
79243;SDS011;68672;42.676;23.356;2023-07-31T02:49:05;14.02;;;10.25;;
79243;SDS011;68672;42.676;23.356;2023-07-31T02:51:30;14.80;;;10.15;;
79243;SDS011;68672;42.676;23.356;2023-07-31T02:53:56;15.80;;;10.52;;
79243;SDS011;68672;42.676;23.356;2023-07-31T02:56:24;16.33;;;10.38;;
79243;SDS011;68672;42.676;23.356;2023-07-31T02:58:52;16.48;;;11.68;;
79243;SDS011;68672;42.676;23.356;2023-07-31T03:01:17;17.25;;;11.65;;
79243;SDS011;68672;42.676;23.356;2023-07-31T03:03:43;12.13;;;9.43;;
79243;SDS011;68672;42.676;23.356;2023-07-31T03:06:08;15.23;;;10.95;;
79243;SDS011;68672;42.676;23.356;2023-07-31T03:08:34;16.25;;;11.18;;
79243;SDS011;68672;42.676;23.356;2023-07-31T03:10:59;16.63;;;10.05;;
79243;SDS011;68672;42.676;23.356;2023-07-31T03:13:24;14.88;;;10.65;;
79243;SDS011;68672;42.676;23.356;2023-07-31T03:15:50;16.10;;;11.43;;
79243;SDS011;68672;42.676;23.356;2023-07-31T03:18:15;15.05;;;10.35;;
79243;SDS011;68672;42.676;23.356;2023-07-31T03:20:44;14.57;;;10.85;;
79243;SDS011;68672;42.676;23.356;2023-07-31T03:23:09;15.70;;;11.05;;
79243;SDS011;68672;42.676;23.356;2023-07-31T03:25:35;14.88;;;10.48;;
79243;SDS011;68672;42.676;23.356;2023-07-31T03:28:00;14.38;;;10.13;;
79243;SDS011;68672;42.676;23.356;2023-07-31T03:30:26;14.55;;;10.75;;
79243;SDS011;68672;42.676;23.356;2023-07-31T03:32:51;17.40;;;10.85;;
79243;SDS011;68672;42.676;23.356;2023-07-31T03:35:17;16.95;;;10.65;;
79243;SDS011;68672;42.676;23.356;2023-07-31T03:37:42;13.90;;;10.30;;
79243;SDS011;68672;42.676;23.356;2023-07-31T03:40:08;17.23;;;10.93;;
79243;SDS011;68672;42.676;23.356;2023-07-31T03:42:34;14.75;;;10.68;;
79243;SDS011;68672;42.676;23.356;2023-07-31T03:44:59;17.92;;;10.55;;
79243;SDS011;68672;42.676;23.356;2023-07-31T03:47:25;18.75;;;10.93;;
79243;SDS011;68672;42.676;23.356;2023-07-31T03:49:50;19.08;;;10.40;;
79243;SDS011;68672;42.676;23.356;2023-07-31T03:52:15;15.48;;;9.45;;
79243;SDS011;68672;42.676;23.356;2023-07-31T03:54:41;14.98;;;11.05;;
79243;SDS011;68672;42.676;23.356;2023-07-31T03:57:06;15.93;;;10.10;;
79243;SDS011;68672;42.676;23.356;2023-07-31T03:59:32;15.90;;;11.25;;
79243;SDS011;68672;42.676;23.356;2023-07-31T04:01:57;15.23;;;11.20;;
79243;SDS011;68672;42.676;23.356;2023-07-31T04:04:22;19.88;;;11.65;;
79243;SDS011;68672;42.676;23.356;2023-07-31T04:06:48;16.15;;;11.20;;
79243;SDS011;68672;42.676;23.356;2023-07-31T04:09:13;16.17;;;10.52;;
79243;SDS011;68672;42.676;23.356;2023-07-31T04:11:39;15.95;;;11.80;;
79243;SDS011;68672;42.676;23.356;2023-07-31T04:14:04;17.10;;;10.90;;
79243;SDS011;68672;42.676;23.356;2023-07-31T04:16:39;17.00;;;11.15;;
79243;SDS011;68672;42.676;23.356;2023-07-31T04:19:04;16.45;;;11.60;;
79243;SDS011;68672;42.676;23.356;2023-07-31T04:21:29;16.85;;;10.80;;
79243;SDS011;68672;42.676;23.356;2023-07-31T04:23:55;17.73;;;10.73;;
79243;SDS011;68672;42.676;23.356;2023-07-31T04:26:21;17.85;;;11.63;;
79243;SDS011;68672;42.676;23.356;2023-07-31T04:28:47;15.80;;;10.90;;
79243;SDS011;68672;42.676;23.356;2023-07-31T04:31:12;17.38;;;11.73;;
79243;SDS011;68672;42.676;23.356;2023-07-31T04:33:37;16.55;;;11.15;;
79243;SDS011;68672;42.676;23.356;2023-07-31T04:36:03;19.63;;;10.98;;
79243;SDS011;68672;42.676;23.356;2023-07-31T04:38:29;17.05;;;10.10;;
79243;SDS011;68672;42.676;23.356;2023-07-31T04:40:55;19.58;;;10.98;;
79243;SDS011;68672;42.676;23.356;2023-07-31T04:43:20;19.50;;;11.30;;
79243;SDS011;68672;42.676;23.356;2023-07-31T04:45:46;17.80;;;11.95;;
79243;SDS011;68672;42.676;23.356;2023-07-31T04:48:12;18.40;;;12.38;;
79243;SDS011;68672;42.676;23.356;2023-07-31T04:50:38;18.48;;;11.50;;
79243;SDS011;68672;42.676;23.356;2023-07-31T04:53:03;16.40;;;10.45;;
79243;SDS011;68672;42.676;23.356;2023-07-31T04:55:32;16.10;;;11.38;;
79243;SDS011;68672;42.676;23.356;2023-07-31T04:57:58;15.85;;;10.35;;
79243;SDS011;68672;42.676;23.356;2023-07-31T05:00:23;17.20;;;10.80;;
79243;SDS011;68672;42.676;23.356;2023-07-31T05:02:52;15.80;;;10.50;;
79243;SDS011;68672;42.676;23.356;2023-07-31T05:05:17;17.48;;;11.10;;
79243;SDS011;68672;42.676;23.356;2023-07-31T05:07:43;17.45;;;10.68;;
79243;SDS011;68672;42.676;23.356;2023-07-31T05:10:11;15.85;;;10.57;;
79243;SDS011;68672;42.676;23.356;2023-07-31T05:12:36;13.70;;;10.00;;
79243;SDS011;68672;42.676;23.356;2023-07-31T05:15:02;12.32;;;9.15;;
79243;SDS011;68672;42.676;23.356;2023-07-31T05:17:28;14.30;;;9.15;;
79243;SDS011;68672;42.676;23.356;2023-07-31T05:19:56;16.92;;;10.73;;
79243;SDS011;68672;42.676;23.356;2023-07-31T05:22:21;16.27;;;10.45;;
79243;SDS011;68672;42.676;23.356;2023-07-31T05:24:47;15.63;;;10.20;;
79243;SDS011;68672;42.676;23.356;2023-07-31T05:27:15;13.50;;;10.68;;
79243;SDS011;68672;42.676;23.356;2023-07-31T05:29:44;13.52;;;9.43;;
79243;SDS011;68672;42.676;23.356;2023-07-31T05:32:09;11.93;;;8.75;;
79243;SDS011;68672;42.676;23.356;2023-07-31T05:34:35;13.48;;;9.20;;
79243;SDS011;68672;42.676;23.356;2023-07-31T05:37:00;13.85;;;9.35;;
79243;SDS011;68672;42.676;23.356;2023-07-31T05:39:26;14.15;;;8.65;;
79243;SDS011;68672;42.676;23.356;2023-07-31T05:41:51;12.73;;;8.65;;
79243;SDS011;68672;42.676;23.356;2023-07-31T05:44:19;13.25;;;8.38;;
79243;SDS011;68672;42.676;23.356;2023-07-31T05:46:44;11.18;;;8.05;;
79243;SDS011;68672;42.676;23.356;2023-07-31T05:49:12;10.95;;;7.70;;
79243;SDS011;68672;42.676;23.356;2023-07-31T05:51:38;12.95;;;7.60;;
79243;SDS011;68672;42.676;23.356;2023-07-31T05:54:06;9.43;;;7.05;;
79243;SDS011;68672;42.676;23.356;2023-07-31T05:56:31;9.43;;;6.82;;
79243;SDS011;68672;42.676;23.356;2023-07-31T05:58:59;8.75;;;6.68;;
79243;SDS011;68672;42.676;23.356;2023-07-31T06:01:24;11.43;;;6.93;;
79243;SDS011;68672;42.676;23.356;2023-07-31T06:03:49;10.75;;;6.82;;
79243;SDS011;68672;42.676;23.356;2023-07-31T06:06:15;8.85;;;6.25;;
79243;SDS011;68672;42.676;23.356;2023-07-31T06:08:40;8.15;;;6.15;;
79243;SDS011;68672;42.676;23.356;2023-07-31T06:11:06;8.63;;;5.78;;
79243;SDS011;68672;42.676;23.356;2023-07-31T06:13:33;7.95;;;5.15;;
79243;SDS011;68672;42.676;23.356;2023-07-31T06:15:59;5.95;;;5.30;;
79243;SDS011;68672;42.676;23.356;2023-07-31T06:18:31;5.80;;;4.75;;
79243;SDS011;68672;42.676;23.356;2023-07-31T06:20:57;6.32;;;4.88;;
79243;SDS011;68672;42.676;23.356;2023-07-31T06:23:23;8.10;;;5.18;;
79243;SDS011;68672;42.676;23.356;2023-07-31T06:25:48;5.75;;;4.63;;
79243;SDS011;68672;42.676;23.356;2023-07-31T06:28:14;6.55;;;4.43;;
79243;SDS011;68672;42.676;23.356;2023-07-31T06:30:39;5.72;;;3.92;;
79243;SDS011;68672;42.676;23.356;2023-07-31T06:33:05;7.25;;;3.92;;
79243;SDS011;68672;42.676;23.356;2023-07-31T06:35:39;6.63;;;4.05;;
79243;SDS011;68672;42.676;23.356;2023-07-31T06:38:05;5.57;;;4.60;;
79243;SDS011;68672;42.676;23.356;2023-07-31T06:40:33;6.35;;;4.15;;
79243;SDS011;68672;42.676;23.356;2023-07-31T06:42:59;5.65;;;4.13;;
79243;SDS011;68672;42.676;23.356;2023-07-31T06:45:30;6.30;;;4.47;;
79243;SDS011;68672;42.676;23.356;2023-07-31T06:47:56;5.45;;;3.97;;
79243;SDS011;68672;42.676;23.356;2023-07-31T06:50:23;5.80;;;4.18;;
79243;SDS011;68672;42.676;23.356;2023-07-31T06:52:51;6.88;;;4.38;;
79243;SDS011;68672;42.676;23.356;2023-07-31T06:55:20;4.65;;;3.50;;
79243;SDS011;68672;42.676;23.356;2023-07-31T06:57:48;6.10;;;4.00;;
79243;SDS011;68672;42.676;23.356;2023-07-31T07:00:15;4.70;;;4.18;;
79243;SDS011;68672;42.676;23.356;2023-07-31T07:02:44;4.85;;;4.35;;
79243;SDS011;68672;42.676;23.356;2023-07-31T07:05:12;4.88;;;3.20;;
79243;SDS011;68672;42.676;23.356;2023-07-31T07:07:38;4.07;;;3.30;;
79243;SDS011;68672;42.676;23.356;2023-07-31T07:10:06;6.18;;;3.60;;
79243;SDS011;68672;42.676;23.356;2023-07-31T07:12:32;4.60;;;3.08;;
79243;SDS011;68672;42.676;23.356;2023-07-31T07:14:58;5.63;;;3.42;;
79243;SDS011;68672;42.676;23.356;2023-07-31T07:17:24;5.97;;;3.95;;
79243;SDS011;68672;42.676;23.356;2023-07-31T07:19:50;4.88;;;3.17;;
79243;SDS011;68672;42.676;23.356;2023-07-31T07:22:19;3.97;;;3.17;;
79243;SDS011;68672;42.676;23.356;2023-07-31T07:24:44;4.95;;;3.47;;
79243;SDS011;68672;42.676;23.356;2023-07-31T07:27:10;4.35;;;3.20;;
79243;SDS011;68672;42.676;23.356;2023-07-31T07:29:35;5.00;;;3.15;;
79243;SDS011;68672;42.676;23.356;2023-07-31T07:32:01;4.15;;;3.33;;
79243;SDS011;68672;42.676;23.356;2023-07-31T07:34:27;4.63;;;3.08;;
79243;SDS011;68672;42.676;23.356;2023-07-31T07:36:53;4.18;;;3.10;;
79243;SDS011;68672;42.676;23.356;2023-07-31T07:39:18;4.57;;;3.42;;
79243;SDS011;68672;42.676;23.356;2023-07-31T07:41:44;4.22;;;3.33;;
79243;SDS011;68672;42.676;23.356;2023-07-31T07:44:09;5.13;;;3.25;;
79243;SDS011;68672;42.676;23.356;2023-07-31T07:46:35;4.75;;;3.47;;
79243;SDS011;68672;42.676;23.356;2023-07-31T07:49:00;5.88;;;3.88;;
79243;SDS011;68672;42.676;23.356;2023-07-31T07:51:29;4.45;;;3.10;;
79243;SDS011;68672;42.676;23.356;2023-07-31T07:53:56;4.47;;;2.83;;
79243;SDS011;68672;42.676;23.356;2023-07-31T07:56:22;4.05;;;2.90;;
79243;SDS011;68672;42.676;23.356;2023-07-31T07:58:51;4.25;;;3.00;;
79243;SDS011;68672;42.676;23.356;2023-07-31T08:01:17;4.88;;;3.05;;
79243;SDS011;68672;42.676;23.356;2023-07-31T08:03:42;3.22;;;2.63;;
79243;SDS011;68672;42.676;23.356;2023-07-31T08:06:08;4.50;;;3.10;;
79243;SDS011;68672;42.676;23.356;2023-07-31T08:08:34;3.85;;;3.13;;
79243;SDS011;68672;42.676;23.356;2023-07-31T08:11:00;3.58;;;2.88;;
79243;SDS011;68672;42.676;23.356;2023-07-31T08:13:26;3.53;;;2.40;;
79243;SDS011;68672;42.676;23.356;2023-07-31T08:15:51;4.18;;;3.30;;
79243;SDS011;68672;42.676;23.356;2023-07-31T08:18:17;5.00;;;3.17;;
79243;SDS011;68672;42.676;23.356;2023-07-31T08:20:42;4.53;;;2.70;;
79243;SDS011;68672;42.676;23.356;2023-07-31T08:23:08;4.50;;;3.17;;
79243;SDS011;68672;42.676;23.356;2023-07-31T08:25:36;4.63;;;2.83;;
79243;SDS011;68672;42.676;23.356;2023-07-31T08:28:02;4.45;;;3.00;;
79243;SDS011;68672;42.676;23.356;2023-07-31T08:30:28;6.15;;;3.10;;
79243;SDS011;68672;42.676;23.356;2023-07-31T08:32:55;3.53;;;2.90;;
79243;SDS011;68672;42.676;23.356;2023-07-31T08:35:20;4.05;;;3.00;;
79243;SDS011;68672;42.676;23.356;2023-07-31T08:37:48;5.18;;;2.80;;
79243;SDS011;68672;42.676;23.356;2023-07-31T08:40:14;3.92;;;3.05;;
79243;SDS011;68672;42.676;23.356;2023-07-31T08:42:45;4.78;;;3.50;;
79243;SDS011;68672;42.676;23.356;2023-07-31T08:45:15;3.33;;;2.47;;
79243;SDS011;68672;42.676;23.356;2023-07-31T08:47:46;3.75;;;2.70;;
79243;SDS011;68672;42.676;23.356;2023-07-31T08:50:14;4.55;;;3.10;;
79243;SDS011;68672;42.676;23.356;2023-07-31T08:52:40;4.53;;;2.83;;
79243;SDS011;68672;42.676;23.356;2023-07-31T08:55:06;3.72;;;2.95;;
79243;SDS011;68672;42.676;23.356;2023-07-31T08:57:33;4.47;;;2.90;;
79243;SDS011;68672;42.676;23.356;2023-07-31T09:00:00;5.60;;;3.17;;
79243;SDS011;68672;42.676;23.356;2023-07-31T09:02:28;4.85;;;3.10;;
79243;SDS011;68672;42.676;23.356;2023-07-31T09:05:02;4.85;;;3.30;;
79243;SDS011;68672;42.676;23.356;2023-07-31T09:07:30;3.80;;;2.60;;
79243;SDS011;68672;42.676;23.356;2023-07-31T09:09:58;3.58;;;2.65;;
79243;SDS011;68672;42.676;23.356;2023-07-31T09:12:25;3.40;;;2.42;;
79243;SDS011;68672;42.676;23.356;2023-07-31T09:14:51;3.75;;;3.03;;
79243;SDS011;68672;42.676;23.356;2023-07-31T09:17:31;3.72;;;2.45;;
79243;SDS011;68672;42.676;23.356;2023-07-31T09:22:39;3.72;;;2.83;;
79243;SDS011;68672;42.676;23.356;2023-07-31T09:30:26;3.63;;;2.55;;
79243;SDS011;68672;42.676;23.356;2023-07-31T09:33:00;5.15;;;3.13;;
79243;SDS011;68672;42.676;23.356;2023-07-31T09:35:31;4.00;;;3.00;;
79243;SDS011;68672;42.676;23.356;2023-07-31T09:37:58;4.38;;;2.97;;
79243;SDS011;68672;42.676;23.356;2023-07-31T09:40:33;4.15;;;2.97;;
79243;SDS011;68672;42.676;23.356;2023-07-31T09:43:06;3.47;;;2.53;;
79243;SDS011;68672;42.676;23.356;2023-07-31T09:45:35;5.40;;;2.78;;
79243;SDS011;68672;42.676;23.356;2023-07-31T09:48:08;4.07;;;3.00;;
79243;SDS011;68672;42.676;23.356;2023-07-31T09:50:39;5.38;;;3.50;;
79243;SDS011;68672;42.676;23.356;2023-07-31T09:53:06;4.60;;;3.45;;
79243;SDS011;68672;42.676;23.356;2023-07-31T09:55:36;4.10;;;2.75;;
79243;SDS011;68672;42.676;23.356;2023-07-31T09:58:03;5.85;;;2.75;;
79243;SDS011;68672;42.676;23.356;2023-07-31T10:00:30;3.50;;;2.60;;
79243;SDS011;68672;42.676;23.356;2023-07-31T10:03:00;2.97;;;2.25;;
79243;SDS011;68672;42.676;23.356;2023-07-31T10:05:31;3.60;;;2.33;;
79243;SDS011;68672;42.676;23.356;2023-07-31T10:08:00;4.20;;;2.90;;
79243;SDS011;68672;42.676;23.356;2023-07-31T10:10:25;4.47;;;2.75;;
79243;SDS011;68672;42.676;23.356;2023-07-31T10:12:53;2.95;;;2.20;;
79243;SDS011;68672;42.676;23.356;2023-07-31T10:15:19;3.30;;;2.35;;
79243;SDS011;68672;42.676;23.356;2023-07-31T10:17:48;3.92;;;2.22;;
79243;SDS011;68672;42.676;23.356;2023-07-31T10:20:15;3.60;;;2.50;;
79243;SDS011;68672;42.676;23.356;2023-07-31T10:22:41;5.70;;;2.65;;
79243;SDS011;68672;42.676;23.356;2023-07-31T10:25:08;3.35;;;2.40;;
79243;SDS011;68672;42.676;23.356;2023-07-31T10:27:35;3.05;;;2.13;;
79243;SDS011;68672;42.676;23.356;2023-07-31T10:30:02;3.22;;;2.00;;
79243;SDS011;68672;42.676;23.356;2023-07-31T10:32:29;4.38;;;2.60;;
79243;SDS011;68672;42.676;23.356;2023-07-31T10:34:55;2.58;;;2.20;;
79243;SDS011;68672;42.676;23.356;2023-07-31T10:37:22;3.40;;;2.33;;
79243;SDS011;68672;42.676;23.356;2023-07-31T10:39:59;3.17;;;2.15;;
79243;SDS011;68672;42.676;23.356;2023-07-31T10:42:35;4.93;;;2.22;;
79243;SDS011;68672;42.676;23.356;2023-07-31T10:45:03;5.57;;;2.30;;
79243;SDS011;68672;42.676;23.356;2023-07-31T10:47:51;3.33;;;2.63;;
79243;SDS011;68672;42.676;23.356;2023-07-31T10:50:28;3.58;;;2.13;;
79243;SDS011;68672;42.676;23.356;2023-07-31T10:52:54;3.00;;;2.05;;
79243;SDS011;68672;42.676;23.356;2023-07-31T10:55:25;3.03;;;2.13;;
79243;SDS011;68672;42.676;23.356;2023-07-31T10:58:05;2.70;;;2.00;;
79243;SDS011;68672;42.676;23.356;2023-07-31T11:00:39;3.25;;;2.33;;
79243;SDS011;68672;42.676;23.356;2023-07-31T11:03:10;2.85;;;2.10;;
79243;SDS011;68672;42.676;23.356;2023-07-31T11:05:53;2.92;;;2.00;;
79243;SDS011;68672;42.676;23.356;2023-07-31T11:08:21;3.58;;;2.60;;
79243;SDS011;68672;42.676;23.356;2023-07-31T11:10:49;3.08;;;2.17;;
79243;SDS011;68672;42.676;23.356;2023-07-31T11:13:30;2.90;;;2.00;;
79243;SDS011;68672;42.676;23.356;2023-07-31T11:15:57;3.83;;;2.08;;
79243;SDS011;68672;42.676;23.356;2023-07-31T11:18:22;3.13;;;2.25;;
79243;SDS011;68672;42.676;23.356;2023-07-31T11:20:48;2.55;;;1.88;;
79243;SDS011;68672;42.676;23.356;2023-07-31T11:23:15;3.42;;;2.33;;
79243;SDS011;68672;42.676;23.356;2023-07-31T11:25:41;3.33;;;1.83;;
79243;SDS011;68672;42.676;23.356;2023-07-31T11:28:14;3.22;;;2.30;;
79243;SDS011;68672;42.676;23.356;2023-07-31T11:30:41;3.15;;;2.13;;
79243;SDS011;68672;42.676;23.356;2023-07-31T11:33:08;2.92;;;2.00;;
79243;SDS011;68672;42.676;23.356;2023-07-31T11:35:36;3.00;;;2.40;;
79243;SDS011;68672;42.676;23.356;2023-07-31T11:41:01;3.92;;;2.17;;
79243;SDS011;68672;42.676;23.356;2023-07-31T11:43:32;2.80;;;1.73;;
79243;SDS011;68672;42.676;23.356;2023-07-31T11:45:59;3.17;;;2.05;;
79243;SDS011;68672;42.676;23.356;2023-07-31T11:48:29;3.30;;;2.08;;
79243;SDS011;68672;42.676;23.356;2023-07-31T11:51:00;3.63;;;2.47;;
79243;SDS011;68672;42.676;23.356;2023-07-31T11:53:28;2.97;;;2.20;;
79243;SDS011;68672;42.676;23.356;2023-07-31T11:56:02;3.40;;;2.25;;
79243;SDS011;68672;42.676;23.356;2023-07-31T11:58:38;3.42;;;2.50;;
79243;SDS011;68672;42.676;23.356;2023-07-31T12:01:05;3.08;;;2.17;;
79243;SDS011;68672;42.676;23.356;2023-07-31T12:03:31;4.50;;;2.60;;
79243;SDS011;68672;42.676;23.356;2023-07-31T12:05:58;3.42;;;2.50;;
79243;SDS011;68672;42.676;23.356;2023-07-31T12:08:24;2.80;;;2.20;;
79243;SDS011;68672;42.676;23.356;2023-07-31T12:10:50;3.33;;;2.72;;
79243;SDS011;68672;42.676;23.356;2023-07-31T12:13:23;3.88;;;2.83;;
79243;SDS011;68672;42.676;23.356;2023-07-31T12:15:54;3.85;;;2.80;;
79243;SDS011;68672;42.676;23.356;2023-07-31T12:18:22;4.13;;;3.13;;
79243;SDS011;68672;42.676;23.356;2023-07-31T12:20:55;3.72;;;2.78;;
79243;SDS011;68672;42.676;23.356;2023-07-31T12:23:30;6.38;;;3.22;;
79243;SDS011;68672;42.676;23.356;2023-07-31T12:26:10;4.05;;;3.28;;
79243;SDS011;68672;42.676;23.356;2023-07-31T12:28:38;5.22;;;3.53;;
79243;SDS011;68672;42.676;23.356;2023-07-31T12:31:07;4.80;;;3.88;;
79243;SDS011;68672;42.676;23.356;2023-07-31T12:33:38;5.03;;;4.07;;
79243;SDS011;68672;42.676;23.356;2023-07-31T12:36:08;5.38;;;3.75;;
79243;SDS011;68672;42.676;23.356;2023-07-31T12:38:36;5.30;;;3.53;;
79243;SDS011;68672;42.676;23.356;2023-07-31T12:41:01;4.90;;;3.53;;
79243;SDS011;68672;42.676;23.356;2023-07-31T12:43:26;4.05;;;3.40;;
79243;SDS011;68672;42.676;23.356;2023-07-31T12:45:54;4.70;;;3.35;;
79243;SDS011;68672;42.676;23.356;2023-07-31T12:48:19;5.38;;;3.92;;
79243;SDS011;68672;42.676;23.356;2023-07-31T12:50:48;3.85;;;3.08;;
79243;SDS011;68672;42.676;23.356;2023-07-31T12:53:14;5.25;;;4.00;;
79243;SDS011;68672;42.676;23.356;2023-07-31T12:55:40;5.55;;;3.90;;
79243;SDS011;68672;42.676;23.356;2023-07-31T12:58:05;6.65;;;4.00;;
79243;SDS011;68672;42.676;23.356;2023-07-31T13:00:33;5.20;;;4.13;;
79243;SDS011;68672;42.676;23.356;2023-07-31T13:03:02;5.50;;;3.83;;
79243;SDS011;68672;42.676;23.356;2023-07-31T13:05:28;5.97;;;4.20;;
79243;SDS011;68672;42.676;23.356;2023-07-31T13:07:53;5.32;;;4.05;;
79243;SDS011;68672;42.676;23.356;2023-07-31T13:10:22;5.60;;;4.28;;
79243;SDS011;68672;42.676;23.356;2023-07-31T13:12:48;6.22;;;4.78;;
79243;SDS011;68672;42.676;23.356;2023-07-31T13:15:14;6.90;;;3.90;;
79243;SDS011;68672;42.676;23.356;2023-07-31T13:17:39;5.55;;;4.55;;
79243;SDS011;68672;42.676;23.356;2023-07-31T13:20:05;6.05;;;4.30;;
79243;SDS011;68672;42.676;23.356;2023-07-31T13:22:31;4.97;;;4.15;;
79243;SDS011;68672;42.676;23.356;2023-07-31T13:24:56;5.88;;;3.88;;
79243;SDS011;68672;42.676;23.356;2023-07-31T13:27:22;5.60;;;4.30;;
79243;SDS011;68672;42.676;23.356;2023-07-31T13:29:48;6.78;;;4.38;;
79243;SDS011;68672;42.676;23.356;2023-07-31T13:32:15;6.53;;;3.70;;
79243;SDS011;68672;42.676;23.356;2023-07-31T13:34:41;5.13;;;3.78;;
79243;SDS011;68672;42.676;23.356;2023-07-31T13:37:06;4.65;;;3.35;;
79243;SDS011;68672;42.676;23.356;2023-07-31T13:39:32;5.55;;;3.67;;
79243;SDS011;68672;42.676;23.356;2023-07-31T13:41:58;5.45;;;3.40;;
79243;SDS011;68672;42.676;23.356;2023-07-31T13:44:24;5.07;;;3.60;;
79243;SDS011;68672;42.676;23.356;2023-07-31T13:46:49;3.97;;;3.28;;
79243;SDS011;68672;42.676;23.356;2023-07-31T13:49:14;5.97;;;3.85;;
79243;SDS011;68672;42.676;23.356;2023-07-31T13:51:40;5.10;;;4.00;;
79243;SDS011;68672;42.676;23.356;2023-07-31T13:54:05;5.22;;;3.72;;
79243;SDS011;68672;42.676;23.356;2023-07-31T13:56:34;4.30;;;3.10;;
79243;SDS011;68672;42.676;23.356;2023-07-31T13:58:59;5.10;;;3.47;;
79243;SDS011;68672;42.676;23.356;2023-07-31T14:01:26;4.13;;;3.33;;
79243;SDS011;68672;42.676;23.356;2023-07-31T14:03:51;6.10;;;3.42;;
79243;SDS011;68672;42.676;23.356;2023-07-31T14:06:20;4.70;;;3.20;;
79243;SDS011;68672;42.676;23.356;2023-07-31T14:08:45;4.10;;;3.38;;
79243;SDS011;68672;42.676;23.356;2023-07-31T14:11:14;5.35;;;3.40;;
79243;SDS011;68672;42.676;23.356;2023-07-31T14:13:43;4.75;;;3.30;;
79243;SDS011;68672;42.676;23.356;2023-07-31T14:16:08;4.30;;;3.05;;
79243;SDS011;68672;42.676;23.356;2023-07-31T14:18:34;4.82;;;3.40;;
79243;SDS011;68672;42.676;23.356;2023-07-31T14:21:02;5.32;;;3.30;;
79243;SDS011;68672;42.676;23.356;2023-07-31T14:23:27;5.43;;;4.20;;
79243;SDS011;68672;42.676;23.356;2023-07-31T14:25:53;4.43;;;3.20;;
79243;SDS011;68672;42.676;23.356;2023-07-31T14:28:18;4.97;;;3.50;;
79243;SDS011;68672;42.676;23.356;2023-07-31T14:30:43;4.43;;;3.40;;
79243;SDS011;68672;42.676;23.356;2023-07-31T14:33:12;4.40;;;3.55;;
79243;SDS011;68672;42.676;23.356;2023-07-31T14:35:37;5.05;;;3.45;;
79243;SDS011;68672;42.676;23.356;2023-07-31T14:38:04;5.30;;;3.40;;
79243;SDS011;68672;42.676;23.356;2023-07-31T14:40:30;5.88;;;3.50;;
79243;SDS011;68672;42.676;23.356;2023-07-31T14:42:55;4.75;;;3.63;;
79243;SDS011;68672;42.676;23.356;2023-07-31T14:45:21;5.70;;;3.42;;
79243;SDS011;68672;42.676;23.356;2023-07-31T14:47:49;4.90;;;3.90;;
79243;SDS011;68672;42.676;23.356;2023-07-31T14:50:15;5.00;;;3.28;;